Time;durP1;ratioP1;P1;durP2;ratioP2;P2;SDS_P1;SDS_P2;PMS_P1;PMS_P2;Temp;Humidity;BMP_temperature;BMP_pressure;BME280_temperature;BME280_humidity;BME280_pressure;Samples;Min_cycle;Max_cycle;Signal;HPM_P1;HPM_P2
2023/09/12 00:02:06;;;;;;;27.85;24.85;;;20.10;99.90;;;;;;4993406;28;20038;-65
2023/09/12 00:04:31;;;;;;;40.63;36.22;;;20.10;99.90;;;;;;4993286;28;20041;-64
2023/09/12 00:06:57;;;;;;;42.60;38.13;;;20.10;99.90;;;;;;4994341;28;20034;-64
2023/09/12 00:09:23;;;;;;;40.70;36.38;;;20.00;99.90;;;;;;4977165;28;20034;-64
2023/09/12 00:11:48;;;;;;;37.22;33.33;;;20.00;99.90;;;;;;4960899;28;20050;-65
2023/09/12 00:14:18;;;;;;;43.33;38.28;;;20.00;99.90;;;;;;4992992;28;20042;-65
2023/09/12 00:16:44;;;;;;;31.45;28.13;;;20.10;99.90;;;;;;4992761;28;20045;-64
2023/09/12 00:19:09;;;;;;;32.10;28.73;;;20.00;99.90;;;;;;4992257;28;20050;-64
2023/09/12 00:21:35;;;;;;;38.55;34.53;;;20.00;99.90;;;;;;4976906;28;20034;-63
2023/09/12 00:24:01;;;;;;;38.13;34.10;;;20.00;99.90;;;;;;4993320;28;20129;-65
2023/09/12 00:26:27;;;;;;;41.80;36.35;;;20.10;99.90;;;;;;4993109;28;20046;-63
2023/09/12 00:28:53;;;;;;;32.50;29.10;;;20.00;99.90;;;;;;4992596;28;20046;-65
2023/09/12 00:31:18;;;;;;;37.75;33.75;;;19.90;99.90;;;;;;4992755;28;20038;-64
2023/09/12 00:33:44;;;;;;;25.30;22.38;;;19.90;99.90;;;;;;4992523;28;20067;-65
2023/09/12 00:36:10;;;;;;;40.03;35.58;;;19.90;99.90;;;;;;4976609;28;20032;-64
2023/09/12 00:38:36;;;;;;;35.70;31.80;;;20.00;99.90;;;;;;4994212;28;20517;-65
2023/09/12 00:41:01;;;;;;;44.60;39.25;;;20.00;99.90;;;;;;4976669;28;20089;-64
2023/09/12 00:43:27;;;;;;;33.45;30.00;;;20.00;99.90;;;;;;4992639;28;20042;-64
2023/09/12 00:45:53;;;;;;;41.30;36.58;;;20.00;99.90;;;;;;4976377;28;20073;-64
2023/09/12 00:48:19;;;;;;;43.50;38.97;;;20.00;99.90;;;;;;4992805;28;20487;-64
2023/09/12 00:50:48;;;;;;;45.45;38.33;;;20.00;99.90;;;;;;4976599;28;20045;-63
2023/09/12 00:53:15;;;;;;;45.42;40.40;;;19.90;99.90;;;;;;4992511;28;20154;-64
2023/09/12 00:55:49;;;;;;;45.13;37.83;;;19.90;99.90;;;;;;4976581;28;20042;-63
2023/09/12 00:58:15;;;;;;;45.00;40.10;;;19.90;99.90;;;;;;4993886;28;20077;-64
2023/09/12 01:00:41;;;;;;;46.13;41.30;;;20.00;99.90;;;;;;4976525;28;20538;-64
2023/09/12 01:03:07;;;;;;;43.97;38.78;;;20.00;99.90;;;;;;4992545;28;20113;-64
2023/09/12 01:05:34;;;;;;;39.45;34.83;;;19.80;99.90;;;;;;4993827;28;20113;-64
2023/09/12 01:08:00;;;;;;;74.55;56.38;;;19.60;99.90;;;;;;4976303;28;20137;-64
2023/09/12 01:10:27;;;;;;;45.00;40.10;;;19.60;99.90;;;;;;4976425;28;20496;-64
2023/09/12 01:12:52;;;;;;;51.00;43.25;;;19.50;99.90;;;;;;4992451;28;20129;-64
2023/09/12 01:15:18;;;;;;;38.92;34.30;;;19.50;99.90;;;;;;4992237;28;20080;-64
2023/09/12 01:17:45;;;;;;;43.28;38.58;;;19.50;99.90;;;;;;4992058;28;20053;-64
2023/09/12 01:20:16;;;;;;;40.78;36.03;;;19.60;99.90;;;;;;4992149;28;20061;-64
2023/09/12 01:23:19;;;;;;;36.03;32.33;;;19.60;99.90;;;;;;4992641;28;20050;-64
2023/09/12 01:26:18;;;;;;;37.92;30.20;;;19.60;99.90;;;;;;4993725;28;20060;-64
2023/09/12 01:28:47;;;;;;;42.60;38.00;;;19.70;99.90;;;;;;4992191;28;20086;-64
2023/09/12 01:31:15;;;;;;;45.53;39.88;;;19.70;99.90;;;;;;4993741;28;20392;-68
2023/09/12 01:33:40;;;;;;;55.75;45.20;;;19.70;99.90;;;;;;4996698;28;20133;-68
2023/09/12 01:36:08;;;;;;;34.75;30.98;;;19.70;99.90;;;;;;4979754;28;20092;-68
2023/09/12 01:38:34;;;;;;;29.67;26.63;;;19.60;99.90;;;;;;4979534;28;20054;-68
2023/09/12 01:41:00;;;;;;;50.75;38.25;;;19.70;99.90;;;;;;4996102;28;20123;-69
2023/09/12 01:43:27;;;;;;;34.03;30.27;;;19.70;99.90;;;;;;4995762;28;20046;-69
2023/09/12 01:45:56;;;;;;;33.75;30.23;;;19.70;99.90;;;;;;4979661;28;20522;-69
2023/09/12 01:48:26;;;;;;;29.30;25.10;;;19.60;99.90;;;;;;4997128;28;20134;-69
2023/09/12 01:50:53;;;;;;;26.80;23.92;;;19.50;99.90;;;;;;4995895;28;20053;-69
2023/09/12 01:53:19;;;;;;;25.95;23.15;;;19.50;99.90;;;;;;4995736;28;20530;-69
2023/09/12 01:55:47;;;;;;;28.83;25.83;;;19.60;99.90;;;;;;4979466;28;20034;-68
2023/09/12 01:58:13;;;;;;;26.30;23.55;;;19.60;99.90;;;;;;4995478;28;20080;-69
2023/09/12 02:00:43;;;;;;;26.65;23.85;;;19.60;99.90;;;;;;4995476;28;20045;-69
2023/09/12 02:03:09;;;;;;;27.02;24.23;;;19.70;99.90;;;;;;4995275;28;20038;-69
2023/09/12 02:05:35;;;;;;;31.33;28.13;;;19.60;99.90;;;;;;4995652;28;20038;-69
2023/09/12 02:08:01;;;;;;;28.27;25.40;;;19.60;99.90;;;;;;4995521;28;20046;-69
2023/09/12 02:10:27;;;;;;;35.40;31.80;;;19.60;99.90;;;;;;4979105;28;20049;-69
2023/09/12 02:12:53;;;;;;;27.20;24.42;;;19.60;99.90;;;;;;4979079;28;20049;-69
2023/09/12 02:15:19;;;;;;;46.13;36.28;;;19.50;99.90;;;;;;4979404;28;20050;-69
2023/09/12 02:17:44;;;;;;;39.00;34.90;;;19.40;99.90;;;;;;4995228;28;20046;-70
2023/09/12 02:20:11;;;;;;;32.33;28.92;;;19.20;99.90;;;;;;4995411;28;20129;-69
2023/09/12 02:22:37;;;;;;;23.88;21.35;;;19.20;99.90;;;;;;4995196;28;20050;-68
2023/09/12 02:25:08;;;;;;;34.30;30.77;;;19.10;99.90;;;;;;4996394;28;20053;-68
2023/09/12 02:27:34;;;;;;;33.30;29.88;;;19.20;99.90;;;;;;4995272;28;20053;-68
2023/09/12 02:29:59;;;;;;;25.85;23.05;;;19.20;99.90;;;;;;4996530;28;20143;-68
2023/09/12 02:32:25;;;;;;;25.45;22.58;;;19.20;99.90;;;;;;4994928;28;20038;-68
2023/09/12 02:34:53;;;;;;;23.13;20.67;;;19.30;99.90;;;;;;4995774;28;20104;-68
2023/09/12 02:37:19;;;;;;;28.42;25.02;;;19.40;99.90;;;;;;4995102;28;20483;-68
2023/09/12 02:39:44;;;;;;;24.58;22.02;;;19.40;99.90;;;;;;4995880;28;20081;-68
2023/09/12 02:42:10;;;;;;;33.65;30.17;;;19.40;99.90;;;;;;4994475;28;20042;-63
2023/09/12 02:44:36;;;;;;;36.58;32.63;;;19.40;99.90;;;;;;4994993;28;20038;-63
2023/09/12 02:47:04;;;;;;;43.28;34.58;;;19.40;99.90;;;;;;4994347;28;20038;-64
2023/09/12 02:49:30;;;;;;;35.00;31.30;;;19.40;99.90;;;;;;4996005;28;20074;-63
2023/09/12 02:51:56;;;;;;;33.00;29.52;;;19.30;99.90;;;;;;4977972;28;20439;-64
2023/09/12 02:54:22;;;;;;;26.52;23.67;;;19.30;99.90;;;;;;4995442;28;20050;-65
2023/09/12 02:56:47;;;;;;;31.55;28.30;;;19.40;99.90;;;;;;4978511;28;20125;-65
2023/09/12 02:59:17;;;;;;;40.17;35.85;;;19.40;99.90;;;;;;4994573;28;20037;-64
2023/09/12 03:01:43;;;;;;;43.08;38.35;;;19.40;99.90;;;;;;4978978;28;20165;-64
2023/09/12 03:04:09;;;;;;;90.60;43.03;;;19.30;99.90;;;;;;4994519;28;20077;-64
2023/09/12 03:06:35;;;;;;;51.95;42.53;;;19.30;99.90;;;;;;4977976;28;20482;-67
2023/09/12 03:09:01;;;;;;;145.65;44.13;;;19.20;99.90;;;;;;4994005;28;20050;-64
2023/09/12 03:11:27;;;;;;;229.30;51.67;;;19.20;99.90;;;;;;4995255;28;20133;-65
2023/09/12 03:13:53;;;;;;;53.25;42.17;;;19.10;99.90;;;;;;4995161;28;20105;-64
2023/09/12 03:16:19;;;;;;;123.40;42.92;;;19.20;99.90;;;;;;4994983;28;20085;-64
2023/09/12 03:18:45;;;;;;;57.33;36.97;;;19.20;99.90;;;;;;4977974;28;20044;-64
2023/09/12 03:21:11;;;;;;;45.35;39.20;;;19.10;99.90;;;;;;4977713;28;20038;-64
2023/09/12 03:23:36;;;;;;;50.72;39.35;;;19.20;99.90;;;;;;4993721;28;20105;-64
2023/09/12 03:26:04;;;;;;;108.35;43.70;;;19.10;99.90;;;;;;4977440;28;20125;-66
2023/09/12 03:28:30;;;;;;;67.70;44.30;;;19.10;99.90;;;;;;4993736;28;20050;-63
2023/09/12 03:31:08;;;;;;;73.47;43.42;;;19.10;99.90;;;;;;4994873;28;20411;-64
2023/09/12 03:33:34;;;;;;;94.35;42.35;;;19.10;99.90;;;;;;4993237;28;20089;-64
2023/09/12 03:35:59;;;;;;;61.95;38.75;;;19.00;99.90;;;;;;4993984;28;20082;-64
2023/09/12 03:38:25;;;;;;;72.10;43.78;;;19.00;99.90;;;;;;4977315;28;20042;-65
2023/09/12 03:40:51;;;;;;;45.28;37.28;;;19.00;99.90;;;;;;4977456;28;20096;-64
2023/09/12 03:43:17;;;;;;;232.70;50.42;;;18.90;99.90;;;;;;4977232;28;20057;-64
2023/09/12 03:45:42;;;;;;;77.70;42.72;;;19.00;99.90;;;;;;4993572;28;20038;-64
2023/09/12 03:48:08;;;;;;;97.88;49.63;;;19.00;99.90;;;;;;4993266;28;20044;-63
2023/09/12 03:50:34;;;;;;;72.93;39.28;;;19.00;99.90;;;;;;4993302;28;20406;-67
2023/09/12 03:53:00;;;;;;;73.32;41.20;;;19.00;99.90;;;;;;4993117;28;20536;-68
2023/09/12 03:55:27;;;;;;;67.95;42.20;;;18.90;99.90;;;;;;4992790;28;20088;-69
2023/09/12 03:57:52;;;;;;;92.55;50.35;;;18.90;99.90;;;;;;4977075;28;20046;-70
2023/09/12 04:00:21;;;;;;;97.38;46.88;;;18.90;99.90;;;;;;4994649;28;20038;-69
2023/09/12 04:02:47;;;;;;;124.57;41.45;;;18.90;99.90;;;;;;4961481;28;20108;-69
2023/09/12 04:05:14;;;;;;;93.97;38.67;;;18.90;99.90;;;;;;4993388;28;20042;-69
2023/09/12 04:07:39;;;;;;;48.00;36.83;;;18.80;99.90;;;;;;4993391;28;20050;-68
2023/09/12 04:10:06;;;;;;;93.40;41.15;;;18.80;99.90;;;;;;4977185;28;20042;-69
2023/09/12 04:12:31;;;;;;;33.60;30.38;;;18.80;99.90;;;;;;4976903;28;20074;-70
2023/09/12 04:14:57;;;;;;;55.83;36.80;;;18.70;99.90;;;;;;4993083;28;20080;-68
2023/09/12 04:17:23;;;;;;;47.42;36.65;;;18.80;99.90;;;;;;4992960;28;20407;-68
2023/09/12 04:19:49;;;;;;;57.90;39.42;;;18.80;99.90;;;;;;4977475;28;20411;-69
2023/09/12 04:22:15;;;;;;;158.43;41.17;;;18.80;99.90;;;;;;4992812;28;20042;-69
2023/09/12 04:24:41;;;;;;;240.85;47.97;;;18.80;99.90;;;;;;4977119;28;20038;-69
2023/09/12 04:27:07;;;;;;;40.67;36.40;;;18.80;99.90;;;;;;4993019;28;20065;-70
2023/09/12 04:29:36;;;;;;;59.22;37.83;;;18.80;99.90;;;;;;4992979;28;20034;-70
2023/09/12 04:32:05;;;;;;;51.20;36.47;;;18.70;99.90;;;;;;4993067;28;20497;-69
2023/09/12 04:34:31;;;;;;;59.13;37.67;;;18.80;99.90;;;;;;4993939;28;20059;-69
2023/09/12 04:36:57;;;;;;;65.95;37.38;;;18.80;99.90;;;;;;4992847;28;20052;-70
2023/09/12 04:39:23;;;;;;;35.95;31.98;;;18.70;99.90;;;;;;4994495;28;20034;-70
2023/09/12 04:41:49;;;;;;;31.90;28.90;;;18.70;99.90;;;;;;4993486;28;20096;-69
2023/09/12 04:44:15;;;;;;;40.03;33.50;;;18.70;99.90;;;;;;4993598;28;20046;-69
2023/09/12 04:46:41;;;;;;;37.83;29.38;;;18.70;99.90;;;;;;4993212;28;20046;-69
2023/09/12 04:49:06;;;;;;;109.47;40.35;;;18.70;99.90;;;;;;4994409;28;20034;-70
2023/09/12 04:51:32;;;;;;;37.70;33.60;;;18.80;99.90;;;;;;4993656;28;20042;-70
2023/09/12 04:53:58;;;;;;;73.78;38.85;;;18.80;99.90;;;;;;4993308;28;20085;-69
2023/09/12 04:56:26;;;;;;;34.40;31.05;;;18.80;99.90;;;;;;4992943;28;20085;-69
2023/09/12 04:58:52;;;;;;;37.45;33.38;;;18.70;99.90;;;;;;4994021;28;20064;-71
2023/09/12 05:01:19;;;;;;;129.25;41.35;;;18.70;99.90;;;;;;4976555;28;20042;-69
2023/09/12 05:03:45;;;;;;;59.55;38.72;;;18.60;99.90;;;;;;4976518;28;20089;-69
2023/09/12 05:06:13;;;;;;;36.22;32.60;;;18.60;99.90;;;;;;4979041;28;20046;-69
2023/09/12 05:08:38;;;;;;;37.72;33.83;;;18.60;99.90;;;;;;4997633;28;20049;-68
2023/09/12 05:11:04;;;;;;;36.22;32.72;;;18.60;99.90;;;;;;4980113;28;20046;-69
2023/09/12 05:13:30;;;;;;;37.30;33.42;;;18.60;99.90;;;;;;4979966;28;20046;-69
2023/09/12 05:15:56;;;;;;;58.22;37.55;;;18.60;99.90;;;;;;4997693;28;20042;-69
2023/09/12 05:18:22;;;;;;;91.90;43.85;;;18.60;99.90;;;;;;4996385;28;20117;-70
2023/09/12 05:20:49;;;;;;;41.20;37.00;;;18.70;99.90;;;;;;4996357;28;20085;-68
2023/09/12 05:23:15;;;;;;;242.43;51.05;;;18.70;99.90;;;;;;4996680;28;20050;-68
2023/09/12 05:25:40;;;;;;;46.47;34.50;;;18.70;99.90;;;;;;4996474;28;20046;-68
2023/09/12 05:28:07;;;;;;;42.08;37.60;;;18.70;99.90;;;;;;4979950;28;20057;-69
2023/09/12 05:30:32;;;;;;;34.55;30.98;;;18.70;99.90;;;;;;4964236;28;20474;-68
2023/09/12 05:32:58;;;;;;;41.20;35.15;;;18.70;99.90;;;;;;4998224;28;20082;-69
2023/09/12 05:35:24;;;;;;;230.52;55.38;;;18.70;99.90;;;;;;4980057;28;20093;-69
2023/09/12 05:37:51;;;;;;;36.33;32.50;;;18.70;99.90;;;;;;4996086;28;20054;-70
2023/09/12 05:40:18;;;;;;;35.90;32.13;;;18.70;99.90;;;;;;4996578;28;20042;-70
2023/09/12 05:42:43;;;;;;;69.43;43.10;;;18.60;99.90;;;;;;4996309;28;20465;-70
2023/09/12 05:45:09;;;;;;;36.13;32.30;;;18.70;99.90;;;;;;4995958;28;20133;-70
2023/09/12 05:47:35;;;;;;;66.97;44.22;;;18.60;99.90;;;;;;4995817;28;20045;-70
2023/09/12 05:50:05;;;;;;;41.97;36.65;;;18.70;99.90;;;;;;4996089;28;20152;-70
2023/09/12 05:52:31;;;;;;;41.88;37.40;;;18.60;99.90;;;;;;4995937;28;20399;-70
2023/09/12 05:54:57;;;;;;;37.75;33.85;;;18.70;99.90;;;;;;4997522;28;20038;-69
2023/09/12 05:57:23;;;;;;;70.80;39.67;;;18.70;99.90;;;;;;4995804;28;20093;-70
2023/09/12 05:59:50;;;;;;;43.95;38.55;;;18.70;99.90;;;;;;4996803;28;20046;-69
2023/09/12 06:02:17;;;;;;;102.40;48.85;;;18.70;99.90;;;;;;4970872;28;20379;-70
2023/09/12 06:04:43;;;;;;;36.40;32.70;;;18.70;99.90;;;;;;4982116;28;20053;-69
2023/09/12 06:07:09;;;;;;;246.60;53.20;;;18.80;99.90;;;;;;4995575;28;20061;-69
2023/09/12 06:09:35;;;;;;;76.18;45.28;;;18.80;99.90;;;;;;4944172;28;20054;-69
2023/09/12 06:12:02;;;;;;;301.17;52.30;;;18.70;99.90;;;;;;4992205;28;20457;-64
2023/09/12 06:14:28;;;;;;;41.70;35.55;;;18.70;99.90;;;;;;4994962;28;20046;-63
2023/09/12 06:16:53;;;;;;;49.10;40.10;;;18.70;99.90;;;;;;4994327;28;20590;-64
2023/09/12 06:19:19;;;;;;;37.47;32.97;;;18.70;99.90;;;;;;4994942;28;20125;-64
2023/09/12 06:21:45;;;;;;;41.13;33.80;;;18.70;99.90;;;;;;4978738;28;20042;-64
2023/09/12 06:24:16;;;;;;;56.47;36.58;;;18.80;99.90;;;;;;4996379;28;20050;-64
2023/09/12 06:26:42;;;;;;;50.30;36.35;;;18.80;99.90;;;;;;4994855;28;20124;-64
2023/09/12 06:29:08;;;;;;;109.75;44.78;;;18.80;99.90;;;;;;4978619;28;20530;-64
2023/09/12 06:31:35;;;;;;;39.50;34.92;;;18.80;99.90;;;;;;4995157;28;20172;-64
2023/09/12 06:34:01;;;;;;;103.03;45.38;;;18.80;99.90;;;;;;4994505;28;20058;-64
2023/09/12 06:36:31;;;;;;;39.58;35.45;;;18.90;99.90;;;;;;4995850;28;20042;-64
2023/09/12 06:38:57;;;;;;;45.17;36.47;;;18.90;99.90;;;;;;4994632;28;20042;-64
2023/09/12 06:41:23;;;;;;;41.15;36.50;;;18.90;99.90;;;;;;4978753;28;20594;-64
2023/09/12 06:43:49;;;;;;;46.58;39.83;;;18.90;99.90;;;;;;4994475;28;20207;-64
2023/09/12 06:46:17;;;;;;;53.03;42.85;;;18.90;99.90;;;;;;4994530;28;20046;-64
2023/09/12 06:48:44;;;;;;;86.72;47.05;;;18.90;99.90;;;;;;4994862;28;20045;-65
2023/09/12 06:51:11;;;;;;;56.33;43.53;;;18.90;99.90;;;;;;4931173;28;20050;-65
2023/09/12 06:53:37;;;;;;;49.75;42.72;;;18.90;99.90;;;;;;4993415;28;20054;-64
2023/09/12 06:56:03;;;;;;;46.85;39.90;;;19.00;99.90;;;;;;4978099;28;20493;-65
2023/09/12 06:58:32;;;;;;;48.58;41.15;;;19.00;99.90;;;;;;4994367;28;20137;-65
2023/09/12 07:01:11;;;;;;;52.03;42.90;;;19.00;99.90;;;;;;4994351;28;20034;-64
2023/09/12 07:03:37;;;;;;;49.70;41.88;;;19.10;99.90;;;;;;4995794;28;20054;-64
2023/09/12 07:06:03;;;;;;;50.15;41.65;;;19.10;99.90;;;;;;4994247;28;20057;-64
2023/09/12 07:08:31;;;;;;;60.15;46.75;;;19.20;99.90;;;;;;4994225;28;20081;-65
2023/09/12 07:10:57;;;;;;;56.45;44.38;;;19.20;99.90;;;;;;4994291;28;20069;-64
2023/09/12 07:13:23;;;;;;;55.22;44.47;;;19.40;99.90;;;;;;4993834;28;20046;-67
2023/09/12 07:15:51;;;;;;;54.22;43.55;;;19.40;99.90;;;;;;4995412;28;20070;-64
2023/09/12 07:18:17;;;;;;;62.22;47.40;;;19.40;99.90;;;;;;4961859;28;20125;-63
2023/09/12 07:20:43;;;;;;;64.43;49.97;;;19.40;99.90;;;;;;4994381;28;20046;-70
2023/09/12 07:23:09;;;;;;;53.75;44.67;;;19.40;99.90;;;;;;4994009;28;20157;-70
2023/09/12 07:25:40;;;;;;;50.50;41.80;;;19.40;99.90;;;;;;4995598;28;20410;-69
2023/09/12 07:28:09;;;;;;;46.60;40.35;;;19.50;99.90;;;;;;4994405;28;20081;-69
2023/09/12 07:30:35;;;;;;;58.22;44.53;;;19.50;99.90;;;;;;4993864;28;20049;-69
2023/09/12 07:33:04;;;;;;;54.20;43.28;;;19.50;99.90;;;;;;4977746;28;20081;-70
2023/09/12 07:35:30;;;;;;;52.15;41.67;;;19.50;99.90;;;;;;4993585;28;20070;-70
2023/09/12 07:37:57;;;;;;;56.83;43.50;;;19.50;99.90;;;;;;4993640;28;20042;-70
2023/09/12 07:40:26;;;;;;;46.47;39.38;;;19.50;99.90;;;;;;4921659;28;20050;-69
2023/09/12 07:42:52;;;;;;;53.22;42.63;;;19.50;99.90;;;;;;4986857;28;20050;-70
2023/09/12 07:45:18;;;;;;;66.47;46.45;;;19.50;99.90;;;;;;4977617;28;20399;-70
2023/09/12 07:47:44;;;;;;;52.22;42.60;;;19.50;99.90;;;;;;4977813;28;20042;-70
2023/09/12 07:50:10;;;;;;;51.35;41.22;;;19.40;99.90;;;;;;4977357;28;20129;-69
2023/09/12 07:52:35;;;;;;;61.00;46.08;;;19.40;99.90;;;;;;4993315;28;20562;-69
2023/09/12 07:55:02;;;;;;;56.60;45.50;;;19.40;99.90;;;;;;4994571;28;20478;-70
2023/09/12 07:57:37;;;;;;;51.78;42.05;;;19.40;99.90;;;;;;4977311;28;20038;-71
2023/09/12 08:00:09;;;;;;;60.22;45.38;;;19.50;99.90;;;;;;4962933;28;20038;-71
2023/09/12 08:02:35;;;;;;;57.05;45.42;;;19.40;99.90;;;;;;4977548;28;20082;-70
2023/09/12 08:05:01;;;;;;;49.95;40.97;;;19.40;99.90;;;;;;4993273;28;20505;-69
2023/09/12 08:07:26;;;;;;;59.55;46.03;;;19.50;99.90;;;;;;4961105;28;20487;-69
2023/09/12 08:09:54;;;;;;;60.03;46.28;;;19.40;99.90;;;;;;4994722;28;20125;-70
2023/09/12 08:12:22;;;;;;;52.95;41.80;;;19.40;99.90;;;;;;4993198;28;20038;-71
2023/09/12 08:14:48;;;;;;;53.05;43.20;;;19.40;99.90;;;;;;4993330;28;20125;-71
2023/09/12 08:17:14;;;;;;;62.28;46.38;;;19.50;99.90;;;;;;4992889;28;20042;-69
2023/09/12 08:19:40;;;;;;;56.40;43.67;;;19.50;99.90;;;;;;4992898;28;20047;-69
2023/09/12 08:22:08;;;;;;;59.90;46.03;;;19.50;99.90;;;;;;4992943;28;20121;-70
2023/09/12 08:24:34;;;;;;;59.05;44.95;;;19.60;99.90;;;;;;4992812;28;20113;-71
2023/09/12 08:27:01;;;;;;;54.17;43.40;;;19.60;99.90;;;;;;4992691;28;20080;-71
2023/09/12 08:29:34;;;;;;;51.53;41.47;;;19.80;99.90;;;;;;4976615;28;20042;-71
2023/09/12 08:32:02;;;;;;;50.08;40.50;;;19.80;99.90;;;;;;4993880;28;20117;-70
2023/09/12 08:34:28;;;;;;;49.40;40.88;;;20.00;99.90;;;;;;4993238;28;20050;-70
2023/09/12 08:36:54;;;;;;;53.92;41.70;;;20.00;99.90;;;;;;4994937;28;20044;-70
2023/09/12 08:39:26;;;;;;;53.20;41.63;;;20.00;99.90;;;;;;4976930;28;20097;-70
2023/09/12 08:41:53;;;;;;;54.30;41.80;;;20.10;99.90;;;;;;4994750;28;20399;-70
2023/09/12 08:44:20;;;;;;;50.58;40.00;;;20.20;99.90;;;;;;4993217;28;20057;-70
2023/09/12 08:46:47;;;;;;;46.53;36.60;;;20.30;99.90;;;;;;4976767;28;20081;-70
2023/09/12 08:49:19;;;;;;;46.65;38.08;;;20.50;99.90;;;;;;4977574;28;20038;-71
2023/09/12 08:51:45;;;;;;;46.30;38.55;;;20.60;99.90;;;;;;4977123;28;20042;-70
2023/09/12 08:54:14;;;;;;;47.58;37.78;;;20.50;99.90;;;;;;4993944;28;20081;-72
2023/09/12 08:56:43;;;;;;;44.72;36.88;;;20.60;99.90;;;;;;4976681;28;20046;-72
2023/09/12 08:59:10;;;;;;;45.00;38.05;;;20.60;99.90;;;;;;4976586;28;20042;-70
2023/09/12 09:01:37;;;;;;;43.78;35.38;;;20.60;99.90;;;;;;4992821;28;20039;-71
2023/09/12 09:04:03;;;;;;;46.60;38.55;;;20.60;99.90;;;;;;4994125;28;20138;-70
2023/09/12 09:06:32;;;;;;;46.42;37.67;;;20.60;99.90;;;;;;4976845;28;20093;-71
2023/09/12 09:08:59;;;;;;;47.05;37.03;;;20.70;99.90;;;;;;4994100;28;20047;-70
2023/09/12 09:11:27;;;;;;;42.95;36.47;;;20.90;99.90;;;;;;4992686;28;20050;-70
2023/09/12 09:13:55;;;;;;;46.40;37.45;;;20.90;99.90;;;;;;4992513;28;20039;-69
2023/09/12 09:16:21;;;;;;;43.55;36.58;;;21.00;99.90;;;;;;4960500;28;20042;-69
2023/09/12 09:18:58;;;;;;;41.30;34.03;;;21.00;99.90;;;;;;4976410;28;20038;-70
2023/09/12 09:21:27;;;;;;;45.25;36.50;;;21.00;99.90;;;;;;4976518;28;20468;-69
2023/09/12 09:23:54;;;;;;;44.35;34.95;;;20.90;99.90;;;;;;4976339;28;20050;-70
2023/09/12 09:26:20;;;;;;;40.60;33.88;;;20.90;99.90;;;;;;4992379;28;20077;-71
2023/09/12 09:29:06;;;;;;;45.30;36.15;;;20.90;99.90;;;;;;4992658;28;20447;-69
2023/09/12 09:31:32;;;;;;;42.80;35.65;;;20.90;99.90;;;;;;4992614;28;20113;-69
2023/09/12 09:33:59;;;;;;;45.42;36.58;;;21.00;99.90;;;;;;4992353;28;20038;-70
2023/09/12 09:36:25;;;;;;;44.53;35.75;;;21.00;99.90;;;;;;4992685;28;20495;-71
2023/09/12 09:38:51;;;;;;;42.47;36.40;;;21.10;99.90;;;;;;4993410;28;20047;-70
2023/09/12 09:41:21;;;;;;;40.47;34.08;;;21.10;99.90;;;;;;4992203;28;20100;-70
2023/09/12 09:43:52;;;;;;;42.63;34.38;;;21.20;99.90;;;;;;4992429;28;20057;-70
2023/09/12 09:46:19;;;;;;;37.63;31.55;;;21.40;99.90;;;;;;4992359;28;20038;-69
2023/09/12 09:48:52;;;;;;;40.50;32.72;;;21.70;99.90;;;;;;4992204;28;20149;-70
2023/09/12 09:51:18;;;;;;;37.15;30.77;;;22.00;99.90;;;;;;4976521;28;20090;-69
2023/09/12 09:53:44;;;;;;;32.33;27.63;;;22.30;99.90;;;;;;4995412;28;20050;-69
2023/09/12 09:56:14;;;;;;;33.80;27.73;;;22.40;99.90;;;;;;4996105;28;20092;-69
2023/09/12 09:58:58;;;;;;;33.42;28.42;;;22.50;99.90;;;;;;4996138;28;20047;-69
2023/09/12 10:01:29;;;;;;;30.58;26.67;;;22.50;99.90;;;;;;4980148;28;20471;-70
2023/09/12 10:04:00;;;;;;;31.27;27.88;;;22.40;99.90;;;;;;4997271;28;20050;-69
2023/09/12 10:06:27;;;;;;;30.15;26.13;;;22.40;99.90;;;;;;4995704;28;20054;-70
2023/09/12 10:08:54;;;;;;;31.95;26.42;;;22.50;99.90;;;;;;4995432;28;20050;-70
2023/09/12 10:11:24;;;;;;;32.70;27.45;;;22.50;99.90;;;;;;4995366;28;20053;-70
2023/09/12 10:13:54;;;;;;;31.08;26.70;;;22.50;99.90;;;;;;4979631;28;20430;-71
2023/09/12 10:16:31;;;;;;;31.45;26.67;;;22.60;99.90;;;;;;4995291;28;20092;-70
2023/09/12 10:19:17;;;;;;;30.95;25.98;;;22.80;99.90;;;;;;4995203;28;20035;-71
2023/09/12 10:22:25;;;;;;;30.30;26.30;;;22.90;99.90;;;;;;4994990;28;20046;-71
2023/09/12 10:24:53;;;;;;;28.27;24.25;;;23.00;99.90;;;;;;4985341;28;20066;-70
2023/09/12 10:27:20;;;;;;;27.08;23.30;;;23.30;99.90;;;;;;4995350;28;20046;-69
2023/09/12 10:29:48;;;;;;;27.65;22.70;;;23.50;99.90;;;;;;4978899;28;20050;-69
2023/09/12 10:32:15;;;;;;;25.15;22.38;;;23.70;99.90;;;;;;4995258;28;20165;-71
2023/09/12 10:34:44;;;;;;;27.55;22.85;;;24.00;99.90;;;;;;4994848;28;20054;-70
2023/09/12 10:37:16;;;;;;;26.33;22.35;;;24.20;99.90;;;;;;4994998;28;20046;-70
2023/09/12 10:39:46;;;;;;;24.00;21.50;;;24.20;99.90;;;;;;4978986;28;20050;-70
2023/09/12 10:42:16;;;;;;;26.60;23.17;;;24.10;99.90;;;;;;4995371;28;20403;-71
2023/09/12 10:44:44;;;;;;;24.38;21.73;;;24.10;99.90;;;;;;4979152;28;20038;-70
2023/09/12 10:47:10;;;;;;;25.45;22.05;;;24.00;99.90;;;;;;4996280;28;20502;-70
2023/09/12 10:49:39;;;;;;;21.65;19.35;;;24.00;99.90;;;;;;4996333;28;20038;-70
2023/09/12 10:52:05;;;;;;;23.70;20.95;;;23.90;99.90;;;;;;4995240;28;20038;-70
2023/09/12 10:54:40;;;;;;;24.85;21.95;;;23.90;99.90;;;;;;4995956;28;20038;-71
2023/09/12 10:57:08;;;;;;;26.50;23.67;;;23.90;99.90;;;;;;4978705;28;20038;-72
2023/09/12 10:59:38;;;;;;;28.38;24.55;;;24.00;99.90;;;;;;4994698;28;20078;-72
2023/09/12 11:02:37;;;;;;;24.20;21.00;;;24.00;99.90;;;;;;4994606;28;20566;-71
2023/09/12 11:05:04;;;;;;;24.65;21.95;;;24.20;99.90;;;;;;4983647;28;20046;-70
2023/09/12 11:07:44;;;;;;;22.60;20.05;;;24.50;99.90;;;;;;4994492;28;20046;-70
2023/09/12 11:10:19;;;;;;;25.25;22.13;;;24.60;99.90;;;;;;4995894;28;20042;-71
2023/09/12 11:12:52;;;;;;;22.35;19.88;;;24.60;99.90;;;;;;4994491;28;20054;-69
2023/09/12 11:15:20;;;;;;;24.80;21.65;;;24.60;99.90;;;;;;4994309;28;20116;-71
2023/09/12 11:17:48;;;;;;;23.95;21.35;;;24.50;99.90;;;;;;4977953;28;20042;-71
2023/09/12 11:20:15;;;;;;;21.58;19.17;;;24.50;99.90;;;;;;4994036;28;20041;-72
2023/09/12 11:22:43;;;;;;;22.10;19.70;;;24.50;99.90;;;;;;4993979;28;20042;-71
2023/09/12 11:25:22;;;;;;;22.08;19.02;;;24.70;99.90;;;;;;4995231;28;20053;-70
2023/09/12 11:27:51;;;;;;;21.75;18.40;;;24.70;99.90;;;;;;4994073;28;20049;-71
2023/09/12 11:30:18;;;;;;;23.50;21.00;;;24.70;99.90;;;;;;4994008;28;20038;-70
2023/09/12 11:32:47;;;;;;;21.00;18.50;;;24.70;99.90;;;;;;4993733;28;20085;-70
2023/09/12 11:35:14;;;;;;;22.63;20.17;;;24.50;99.90;;;;;;4993907;28;20518;-69
2023/09/12 11:37:49;;;;;;;22.67;19.20;;;24.40;99.90;;;;;;4994183;28;20050;-71
2023/09/12 11:40:16;;;;;;;21.05;18.75;;;24.40;99.90;;;;;;4995423;28;20038;-70
2023/09/12 11:42:49;;;;;;;23.23;19.55;;;24.40;99.90;;;;;;4994140;28;20050;-71
2023/09/12 11:45:23;;;;;;;21.08;18.88;;;24.50;99.90;;;;;;4994835;28;20168;-70
2023/09/12 11:47:52;;;;;;;22.63;19.42;;;24.40;99.90;;;;;;4977441;28;20089;-70
2023/09/12 11:50:31;;;;;;;22.55;18.15;;;24.40;99.90;;;;;;4993598;28;20096;-71
2023/09/12 11:53:01;;;;;;;20.10;17.98;;;24.60;99.90;;;;;;4995326;28;20049;-70
2023/09/12 11:55:30;;;;;;;21.73;19.40;;;24.60;99.90;;;;;;4993658;28;20043;-72
2023/09/12 11:57:56;;;;;;;21.30;19.02;;;24.60;99.90;;;;;;4977725;28;20034;-71
2023/09/12 12:00:24;;;;;;;22.67;20.27;;;24.50;99.90;;;;;;4977646;28;20045;-65
2023/09/12 12:02:51;;;;;;;21.73;19.45;;;24.40;99.90;;;;;;4993459;28;20490;-64
2023/09/12 12:05:17;;;;;;;22.83;19.65;;;24.40;99.90;;;;;;4977448;28;20049;-64
2023/09/12 12:07:45;;;;;;;21.27;18.15;;;24.20;99.90;;;;;;4993461;28;20052;-64
2023/09/12 12:10:11;;;;;;;25.27;21.30;;;24.10;99.90;;;;;;4977626;28;20054;-65
2023/09/12 12:12:37;;;;;;;20.92;18.30;;;24.30;99.90;;;;;;4993458;28;20491;-64
2023/09/12 12:15:03;;;;;;;20.17;17.33;;;24.60;99.90;;;;;;4992276;28;20490;-63
2023/09/12 12:17:32;;;;;;;23.40;20.10;;;24.70;99.90;;;;;;4993065;28;20050;-64
2023/09/12 12:19:58;;;;;;;22.65;19.27;;;25.00;99.90;;;;;;4993351;28;20077;-65
2023/09/12 12:22:27;;;;;;;23.48;20.95;;;25.10;99.90;;;;;;4993204;28;20042;-63
2023/09/12 12:25:06;;;;;;;24.02;19.90;;;25.20;99.90;;;;;;4992820;28;20046;-66
2023/09/12 12:27:32;;;;;;;23.63;21.05;;;25.20;99.90;;;;;;4993994;28;20034;-64
2023/09/12 12:29:57;;;;;;;22.90;19.10;;;25.00;99.90;;;;;;4977103;28;20476;-64